KFRR Airport (Front Royal-Warren County) Information

FAA: FRR - ICAO: KFRR

KFRR Airport Location

State Virginia
County Warren
City Front Royal
KFRR Airport is 3 miles west of Front Royal, VA.
Latitude 38-55-03.0440N
Longitude 078-15-12.1440W
Elevation 703ft

KFRR Airport METARs

METAR KFRR 282335Z AUTO 19003KT 10SM OVC070 21/15 A2991 RMK AO1
Altimeter 29.91"
Temperature 21.0°C (69.8°F)
Wind 190° at 3KT
Clouds overcast at 7,000ft
Visibility 10.0mi
Time observed: 2022-05-28T23:35:00Z

KFRR Airport Details

Status Operational
Activation August 1944
Ownership Public
Usage Public
Chart WASHINGTON
ATC on-site No
Beacon schedule sunset-sunrise
Beacon color clear green

KFRR Airport Contacts

Owner COUNTY OF WARREN
Owner address 220 NORTH COMMERCE AVENUE, STE 100, FRONT ROYAL, VA 22630
Owner phone 540-636-4600
Manager GERALD & SUE WATTS
Manager address 1425 MT HARMONY RD, KEYSVILLE, VA 23947
Manager phone 434-736-8637

KFRR Airport (Front Royal-Warren County) Radio Frequencies

KFRR (Airport) Radio Frequencies

UNICOM 123
Common traffic advisory frequency (CTAF) 123